Аэропорт: Ленкорань. Ленкорань

ICAO: UBBL

METAR:
2019/01/21 23:00
UBBL 212300Z 32005KT 3000 BR OVC004 03/03 Q1019 R33/CLRD// NOSIG RMK MT OBSC
METAR:
2019/01/21 18:00
TAF UBBL 211709Z 2118/2218 VRB04KT 3000 BR OVC007 TX06/2211Z TN00/2203Z 
      TEMPO 2118/2206 0400 FG BKN002 
      BECMG 2206/2208 12006KT 8000 NSW SCT015